1869 Hurricane NOT_NAMED (1869239N34314)


IBTrACS version v04r00. Visit IBTrACS website for data access.
Please direct all questions to the IBTrACS Q and A forum

Storm track - Intensity - Wind Radii - Intensity Data - Source Data - All data

Summary Information

Storm ID 1869239N34314
Start Aug 27 00Z
Max Intensity 70 kt (Aug 28 12Z), 996 mb (Aug 29 12Z)
End Sep 3 18Z
ATCF IDs
Track status Best track data.

Storm track plot

Map of storm track

Intensity plots

Map of storm track

Radial wind information

No radial wind information for this storm


Position and Intensity Table

BASIN ISO_TIME_________ NATURE LAT LON MLC WIND MLC PRES
degrees north degrees east kts mb
NA 1869-08-27 00:00:00 TS 34.10 -46.00 65
NA 03:00:00 TS 34.20 -45.75 65
NA 06:00:00 TS 34.30 -45.50 65
NA 09:00:00 TS 34.40 -45.25 65
NA 12:00:00 TS 34.50 -45.00 65
NA 15:00:00 TS 34.60 -44.75 65
NA 18:00:00 TS 34.70 -44.50 65
NA 21:00:00 TS 34.80 -44.25 65
NA 1869-08-28 00:00:00 TS 34.90 -44.00 65
NA 03:00:00 TS 35.00 -43.75 65
NA 06:00:00 TS 35.10 -43.50 65
NA 09:00:00 TS 35.21 -43.25 67
NA 12:00:00 TS 35.30 -43.00 70
NA 15:00:00 TS 35.35 -42.75 70
NA 18:00:00 TS 35.40 -42.50 70
NA 21:00:00 TS 35.49 -42.25 70
NA 1869-08-29 00:00:00 TS 35.60 -42.00 70
NA 03:00:00 TS 35.70 -41.75 70
NA 06:00:00 TS 35.80 -41.50 70
NA 09:00:00 TS 35.90 -41.26 70
NA 12:00:00 TS 36.00 -41.00 70 996
NA 15:00:00 TS 36.10 -40.66 70
NA 18:00:00 TS 36.20 -40.30 70
NA 21:00:00 TS 36.30 -40.00 70
NA 1869-08-30 00:00:00 TS 36.40 -39.70 70
NA 03:00:00 TS 36.50 -39.35 70
NA 06:00:00 TS 36.60 -39.00 70
NA 09:00:00 TS 36.71 -38.70 70
NA 12:00:00 TS 36.80 -38.40 70
NA 15:00:00 TS 36.86 -38.06 67
NA 18:00:00 TS 36.90 -37.70 65
NA 21:00:00 TS 36.95 -37.36 65
NA 1869-08-31 00:00:00 TS 37.00 -37.00 65
NA 03:00:00 TS 37.05 -36.60 62
NA 06:00:00 TS 37.10 -36.20 60
NA 09:00:00 TS 37.17 -35.84 57
NA 12:00:00 TS 37.20 -35.50 55
NA 15:00:00 TS 37.11 -35.14 52
NA 18:00:00 TS 37.00 -34.80 50
NA 21:00:00 TS 36.94 -34.49 47
NA 1869-09-01 00:00:00 TS 36.90 -34.20 45
NA 03:00:00 TS 36.85 -33.90 42
NA 06:00:00 TS 36.80 -33.60 40
NA 09:00:00 TS 36.76 -33.30 37
NA 12:00:00 TS 36.70 -33.00 35
NA 15:00:00 TS 36.61 -32.70 35
NA 18:00:00 TS 36.50 -32.40 35
NA 21:00:00 TS 36.37 -32.10 35
NA 1869-09-02 00:00:00 TS 36.30 -31.80 35
NA 03:00:00 TS 36.37 -31.49 32
NA 06:00:00 TS 36.50 -31.20 30
NA 09:00:00 TS 36.59 -30.97 30
NA 12:00:00 TS 36.70 -30.70 30
NA 15:00:00 TS 36.84 -30.27 30
NA 18:00:00 ET 37.00 -29.80 30
NA 21:00:00 ET 37.14 -29.36 30
NA 1869-09-03 00:00:00 ET 37.30 -29.00 30
NA 03:00:00 ET 37.50 -28.76 30
NA 06:00:00 ET 37.70 -28.60 30
NA 09:00:00 ET 37.86 -28.45 30
NA 12:00:00 ET 38.00 -28.30 30
NA 15:00:00 ET 38.15 -28.11 30
NA 18:00:00 ET 38.30 -27.90 30

Source Information

Agency Information
USA
TOKYO
CMA
HKO
NEWDELHI
REUNION
BOM
NADI
WELLINGTON
DS824
TD9636
TD9635
NEUMANN
MLC

All available IBTrACS Data

SEASON BASIN SUBBASIN ISO_TIME_________ NATURE LAT LON DIST2LAND LANDFALL IFLAG USA SSHS MLC LAT MLC LON MLC CLASS MLC WIND MLC PRES STORM SPEED STORM DIR
Year degrees north degrees east km km 1 degrees north degrees east kts mb kts degrees
1869 NA NA 1869-08-27 00:00:00 TS 34.10 -46.00 1516 1509 _____________O -1 34.10 -46.00 HU 65 5 64
1869 NA NA 03:00:00 TS 34.20 -45.75 1512 1509 _____________P -1 34.20 -45.75 HU 65 5 64
1869 NA NA 06:00:00 TS 34.30 -45.50 1513 1506 _____________O -1 34.30 -45.50 HU 65 5 64
1869 NA NA 09:00:00 TS 34.40 -45.25 1513 1507 _____________P -1 34.40 -45.25 HU 65 5 64
1869 NA NA 12:00:00 TS 34.50 -45.00 1511 1504 _____________O -1 34.50 -45.00 HU 65 5 64
1869 NA NA 15:00:00 TS 34.60 -44.75 1512 1506 _____________P -1 34.60 -44.75 HU 65 5 64
1869 NA NA 18:00:00 TS 34.70 -44.50 1510 1504 _____________O -1 34.70 -44.50 HU 65 5 64
1869 NA NA 21:00:00 TS 34.80 -44.25 1512 1507 _____________P -1 34.80 -44.25 HU 65 5 64
1869 NA NA 1869-08-28 00:00:00 TS 34.90 -44.00 1511 1505 _____________O -1 34.90 -44.00 HU 65 5 64
1869 NA NA 03:00:00 TS 35.00 -43.75 1514 1509 _____________P -1 35.00 -43.75 HU 65 5 64
1869 NA NA 06:00:00 TS 35.10 -43.50 1513 1508 _____________O -1 35.10 -43.50 HU 65 5 63
1869 NA NA 09:00:00 TS 35.21 -43.25 1517 1512 _____________P -1 35.21 -43.25 HU 67 5 64
1869 NA NA 12:00:00 TS 35.30 -43.00 1516 1516 _____________O -1 35.30 -43.00 HU 70 4 71
1869 NA NA 15:00:00 TS 35.35 -42.75 1531 1521 _____________P -1 35.35 -42.75 HU 70 4 76
1869 NA NA 18:00:00 TS 35.40 -42.50 1531 1531 _____________O -1 35.40 -42.50 HU 70 4 71
1869 NA NA 21:00:00 TS 35.49 -42.25 1536 1531 _____________P -1 35.49 -42.25 HU 70 5 64
1869 NA NA 1869-08-29 00:00:00 TS 35.60 -42.00 1537 1532 _____________O -1 35.60 -42.00 HU 70 5 63
1869 NA NA 03:00:00 TS 35.70 -41.75 1543 1539 _____________P -1 35.70 -41.75 HU 70 5 64
1869 NA NA 06:00:00 TS 35.80 -41.50 1544 1540 _____________O -1 35.80 -41.50 HU 70 4 63
1869 NA NA 09:00:00 TS 35.90 -41.26 1545 1545 _____________P -1 35.90 -41.26 HU 70 5 64
1869 NA NA 12:00:00 TS 36.00 -41.00 1552 1552 _____________O -1 36.00 -41.00 HU 70 996 5 68
1869 NA NA 15:00:00 TS 36.10 -40.66 1560 1560 _____________P -1 36.10 -40.66 HU 70 6 71
1869 NA NA 18:00:00 TS 36.20 -40.30 1573 1573 _____________O -1 36.20 -40.30 HU 70 6 69
1869 NA NA 21:00:00 TS 36.30 -40.00 1581 1581 _____________P -1 36.30 -40.00 HU 70 5 68
1869 NA NA 1869-08-30 00:00:00 TS 36.40 -39.70 1590 1590 _____________O -1 36.40 -39.70 HU 70 6 69
1869 NA NA 03:00:00 TS 36.50 -39.35 1605 1602 _____________P -1 36.50 -39.35 HU 70 6 70
1869 NA NA 06:00:00 TS 36.60 -39.00 1614 1614 _____________O -1 36.60 -39.00 HU 70 6 68
1869 NA NA 09:00:00 TS 36.71 -38.70 1624 1622 _____________P -1 36.71 -38.70 HU 70 5 67
1869 NA NA 12:00:00 TS 36.80 -38.40 1634 1634 _____________O -1 36.80 -38.40 HU 70 5 74
1869 NA NA 15:00:00 TS 36.86 -38.06 1645 1645 _____________P -1 36.86 -38.06 HU 67 6 80
1869 NA NA 18:00:00 TS 36.90 -37.70 1669 1669 _____________O -1 36.90 -37.70 HU 65 6 81
1869 NA NA 21:00:00 TS 36.95 -37.36 1688 1687 _____________P -1 36.95 -37.36 HU 65 6 80
1869 NA NA 1869-08-31 00:00:00 TS 37.00 -37.00 1705 1705 _____________O -1 37.00 -37.00 HU 65 6 81
1869 NA NA 03:00:00 TS 37.05 -36.60 1723 1723 _____________P -1 37.05 -36.60 HU 62 6 81
1869 NA NA 06:00:00 TS 37.10 -36.20 1749 1749 _____________O -1 37.10 -36.20 TS 60 6 79
1869 NA NA 09:00:00 TS 37.17 -35.84 1767 1767 _____________P -1 37.17 -35.84 TS 57 6 80
1869 NA NA 12:00:00 TS 37.20 -35.50 1786 1786 _____________O -1 37.20 -35.50 TS 55 6 96
1869 NA NA 15:00:00 TS 37.11 -35.14 1820 1820 _____________P -1 37.11 -35.14 TS 52 6 110
1869 NA NA 18:00:00 TS 37.00 -34.80 1847 1847 _____________O -1 37.00 -34.80 TS 50 5 108
1869 NA NA 21:00:00 TS 36.94 -34.49 1875 1875 _____________P -1 36.94 -34.49 TS 47 5 102
1869 NA NA 1869-09-01 00:00:00 TS 36.90 -34.20 1884 1860 _____________O -1 36.90 -34.20 TS 45 5 101
1869 NA NA 03:00:00 TS 36.85 -33.90 1855 1831 _____________P -1 36.85 -33.90 TS 42 5 102
1869 NA NA 06:00:00 TS 36.80 -33.60 1831 1807 _____________O -1 36.80 -33.60 TS 40 5 101
1869 NA NA 09:00:00 TS 36.76 -33.30 1807 1778 _____________P -1 36.76 -33.30 TS 37 5 102
1869 NA NA 12:00:00 TS 36.70 -33.00 1778 1749 _____________O -1 36.70 -33.00 TS 35 5 107
1869 NA NA 15:00:00 TS 36.61 -32.70 1749 1720 _____________P -1 36.61 -32.70 TS 35 5 113
1869 NA NA 18:00:00 TS 36.50 -32.40 1720 1692 _____________O -1 36.50 -32.40 TS 35 5 116
1869 NA NA 21:00:00 TS 36.37 -32.10 1692 1663 _____________P -1 36.37 -32.10 TS 35 5 112
1869 NA NA 1869-09-02 00:00:00 TS 36.30 -31.80 1663 1645 _____________O -1 36.30 -31.80 TS 35 5 90
1869 NA NA 03:00:00 TS 36.37 -31.49 1645 1627 _____________P -1 36.37 -31.49 TS 32 5 68
1869 NA NA 06:00:00 TS 36.50 -31.20 1627 1617 _____________O -1 36.50 -31.20 TD 30 5 62
1869 NA NA 09:00:00 TS 36.59 -30.97 1617 1600 _____________P -1 36.59 -30.97 TD 30 4 64
1869 NA NA 12:00:00 TS 36.70 -30.70 1600 1576 _____________O -1 36.70 -30.70 TD 30 6 66
1869 NA NA 15:00:00 TS 36.84 -30.27 1576 1552 _____________P -1 36.84 -30.27 TD 30 8 67
1869 NA NA 18:00:00 ET 37.00 -29.80 1552 1529 _____________O -1 37.00 -29.80 EX 30 8 68
1869 NA NA 21:00:00 ET 37.14 -29.36 1529 1515 _____________P -1 37.14 -29.36 EX 30 7 65
1869 NA NA 1869-09-03 00:00:00 ET 37.30 -29.00 1515 1508 _____________O -1 37.30 -29.00 EX 30 6 53
1869 NA NA 03:00:00 ET 37.50 -28.76 1515 1508 _____________P -1 37.50 -28.76 EX 30 5 38
1869 NA NA 06:00:00 ET 37.70 -28.60 1515 1515 _____________O -1 37.70 -28.60 EX 30 4 35
1869 NA NA 09:00:00 ET 37.86 -28.45 1517 1517 _____________P -1 37.86 -28.45 EX 30 4 38
1869 NA NA 12:00:00 ET 38.00 -28.30 1517 1511 _____________O -1 38.00 -28.30 EX 30 4 43
1869 NA NA 15:00:00 ET 38.15 -28.11 1512 1512 _____________P -1 38.15 -28.11 EX 30 4 46
1869 NA NA 18:00:00 ET 38.30 -27.90 1515 _____________O -1 38.30 -27.90 EX 30 5 48